St. Louis, MO

9:14 AM CDT on September 02, 2014 (GMT -0500)
1 Mile South of St. Louis Lambert Airport | Change Station
CLOSE
Current Station
Personal Weather Station
Location: Woodson Terrace, MO
Elevation: 591 ft
Nearby Weather Stations

Elev 591 ft 38.72 °N, 90.36 °W | Updated 4 seconds ago

Overcast
Overcast
70.3 °F
Feels Like 70.3 °F
N
1.0
Wind Variable Wind from SSW
Gusts 3.0 mph

Today
High -- | Low -- °F
--% Chance of Precip.
Yesterday
High -- | Low -- °F
Precip. -- in
6:31 AM 7:30 PM
First Quarter, 52% visible
Pressure 29.92 in
Visibility 10.0 miles
Clouds Few 1600 ft
Mostly Cloudy 3500 ft
Overcast 5500 ft
Dew Point 70 °F
Humidity 98%
Rainfall 0.00 in
Snow Depth Not available.
UV 1 out of 12
Pollen 6.50 out of 12
Ozone Good
PM2.5 Good
Flu Activity Not available.
METAR KSTL 021351Z 27005KT 10SM FEW016 BKN035 OVC055 23/21 A2995 RMK AO2 SLP131 T02280206

More Conditions Fewer Conditions

Pressure 29.92 in
Visibility 10.0 miles
Clouds Few 1600 ft
Mostly Cloudy 3500 ft
Overcast 5500 ft
Dew Point 70 °F
Humidity 98%
Rainfall 0.00 in
Snow Depth Not available.
UV 1 out of 12
Pollen 6.50 out of 12
Ozone Good
PM2.5 Good
Flu Activity Not available.
METAR KSTL 021351Z 27005KT 10SM FEW016 BKN035 OVC055 23/21 A2995 RMK AO2 SLP131 T02280206

More Conditions Fewer Conditions

10-Day Weather Forecast

Almanac

Astronomy

Sep. 02, 2014 Rise Set
Actual Time 6:31 AM CDT 7:30 PM CDT
Civil Twilight 6:04 AM CDT 7:57 PM CDT
Nautical Twilight 5:31 AM CDT 8:29 PM CDT
Astronomical Twilight 4:58 AM CDT 9:02 PM CDT
Moon 2:11 PM CDT No Moon Set
Length of Visible Light 13h 53m
Length of Day
12h 58m
Tomorrow will be 2m 25s shorter.
First Quarter, 52% of the Moon is Illuminated
Today
First Quarter
Sep 8
Full
Sep 15
Last Quarter
Sep 24
New
Oct 1
First Quarter

Today's Extremes

State Highs State Lows

Community

WunderPhotos

Upload Photos

1,749,677 photos uploaded!

WunderBlogs® & News

Nearby

Air Quality

  Air Quality AQ Index Pollutant
Yesterday Good
OZONE
Yesterday Good
PM2.5
Current Good
PM2.5
Current Good
OZONE
Tuesday Moderate
OZONE
Tuesday Good
PM2.5

Snow Depth

Station Depth Elevation
No new snow has been reported.

Earthquake Activity

City Distance Mag. Time & Date
No recent earthquake activity has been reported nearby.
Minimum magnitude displayed is 2.5.

Coastal Water Temperatures

Place Temperature
No Stations Reporting

Nearby Weather Stations